createdAt,value
2023-04-18T00:04:26.293Z,100299.84
2023-04-18T00:09:28.648Z,100298.53
2023-04-18T00:14:30.891Z,100304.03
2023-04-18T00:19:34.372Z,100302.56
2023-04-18T00:24:36.587Z,100301.91
2023-04-18T00:29:40.578Z,100300.25
2023-04-18T00:34:42.675Z,100300.41
2023-04-18T00:39:44.806Z,100299.13
2023-04-18T00:44:47.037Z,100304.28
2023-04-18T00:49:49.461Z,100298.28
2023-04-18T00:54:52.051Z,100299.50
2023-04-18T00:59:55.122Z,100296.63
2023-04-18T01:04:58.741Z,100293.34
2023-04-18T01:10:02.196Z,100297.00
2023-04-18T01:15:06.722Z,100289.72
2023-04-18T01:20:11.128Z,100290.25
2023-04-18T01:25:15.018Z,100287.25
2023-04-18T01:30:17.440Z,100279.16
2023-04-18T01:35:19.881Z,100271.09
2023-04-18T01:40:22.272Z,100282.41
2023-04-18T01:45:25.070Z,100287.72
2023-04-18T01:50:27.261Z,100292.22
2023-04-18T01:55:29.225Z,100295.41
2023-04-18T02:00:31.316Z,100284.88
2023-04-18T02:05:33.174Z,100279.75
2023-04-18T02:10:35.259Z,100274.56
2023-04-18T02:15:37.661Z,100272.59
2023-04-18T02:20:40.672Z,100267.44
2023-04-18T02:25:42.801Z,100272.28
2023-04-18T02:30:45.073Z,100266.78
2023-04-18T02:35:47.281Z,100267.97
2023-04-18T02:40:51.495Z,100278.78
2023-04-18T02:45:53.682Z,100271.16
2023-04-18T02:51:03.404Z,100261.47
2023-04-18T02:56:08.052Z,100273.34
2023-04-18T03:01:39.702Z,100268.31
2023-04-18T03:06:48.543Z,100265.81
2023-04-18T03:11:51.412Z,100267.47
2023-04-18T03:16:58.774Z,100273.59
2023-04-18T03:22:06.186Z,100277.44
2023-04-18T03:27:11.625Z,100272.88
2023-04-18T03:32:14.709Z,100269.81
2023-04-18T03:37:17.020Z,100275.03
2023-04-18T03:42:24.956Z,100281.72
2023-04-18T03:47:26.986Z,100280.00
2023-04-18T03:52:32.781Z,100275.06
2023-04-18T03:57:40.237Z,100281.00
2023-04-18T04:02:46.662Z,100275.94
2023-04-18T04:07:54.932Z,100282.09
2023-04-18T04:12:58.054Z,100281.16
2023-04-18T04:18:00.528Z,100277.03
2023-04-18T04:23:03.404Z,100285.03
2023-04-18T04:28:08.259Z,100281.06
2023-04-18T04:33:25.195Z,100288.81
2023-04-18T04:38:31.151Z,100280.06
2023-04-18T04:43:34.326Z,100280.75
2023-04-18T04:48:36.677Z,100266.69
2023-04-18T04:53:39.415Z,100291.72
2023-04-18T04:58:42.228Z,100290.34
2023-04-18T05:03:52.866Z,100287.47
2023-04-18T05:08:56.854Z,100291.84
2023-04-18T05:13:59.737Z,100285.19
2023-04-18T05:19:01.844Z,100284.03
2023-04-18T05:24:04.064Z,100290.78
2023-04-18T05:29:06.061Z,100292.13
2023-04-18T05:34:08.115Z,100294.97
2023-04-18T05:39:10.237Z,100300.19
2023-04-18T05:44:12.203Z,100298.25
2023-04-18T05:49:14.769Z,100300.94
2023-04-18T05:54:17.308Z,100299.00
2023-04-18T05:59:20.668Z,100306.00
2023-04-18T06:04:22.895Z,100304.91
2023-04-18T06:09:25.115Z,100304.19
2023-04-18T06:14:28.058Z,100305.81
2023-04-18T06:19:30.209Z,100299.28
2023-04-18T06:24:32.411Z,100302.69
2023-04-18T06:29:36.157Z,100304.09
2023-04-18T06:34:40.706Z,100298.88
2023-04-18T06:39:42.900Z,100297.47
2023-04-18T06:44:45.120Z,100298.06
2023-04-18T06:49:47.318Z,100299.00
2023-04-18T06:54:49.508Z,100295.78
2023-04-18T06:59:51.836Z,100284.84
2023-04-18T07:04:54.110Z,100299.56
2023-04-18T07:09:56.284Z,100299.81
2023-04-18T07:14:58.514Z,100298.31
2023-04-18T07:20:00.904Z,100297.50
2023-04-18T07:25:03.129Z,100295.50
2023-04-18T07:30:06.863Z,100297.72
2023-04-18T07:35:10.143Z,100309.97
2023-04-18T07:40:12.857Z,100295.22
2023-04-18T07:45:15.645Z,100297.16
2023-04-18T07:50:17.936Z,100293.59
2023-04-18T07:55:20.139Z,100294.22
2023-04-18T08:00:22.449Z,100295.97
2023-04-18T08:05:24.676Z,100288.47
2023-04-18T08:10:27.093Z,100295.28
2023-04-18T08:15:29.329Z,100285.41
2023-04-18T08:20:31.640Z,100282.03
2023-04-18T08:25:33.837Z,100286.06
2023-04-18T08:30:36.062Z,100291.09
2023-04-18T08:35:38.104Z,100281.94
2023-04-18T08:40:40.341Z,100287.63
2023-04-18T08:45:44.477Z,100287.59
2023-04-18T08:50:47.825Z,100287.75
2023-04-18T08:55:57.335Z,100289.75
2023-04-18T09:00:59.584Z,100287.03
2023-04-18T09:06:09.598Z,100294.13
2023-04-18T09:11:29.553Z,100287.03
2023-04-18T09:16:47.057Z,100284.28
2023-04-18T09:22:00.229Z,100289.38
2023-04-18T09:27:04.202Z,100280.59
2023-04-18T09:32:06.490Z,100287.69
2023-04-18T09:37:13.365Z,100294.16
2023-04-18T09:42:15.514Z,100293.28
2023-04-18T09:47:17.571Z,100286.13
2023-04-18T09:52:20.889Z,100293.19
2023-04-18T09:57:27.820Z,100297.09
2023-04-18T10:02:38.820Z,100292.22
2023-04-18T10:07:44.046Z,100301.25
2023-04-18T10:12:48.385Z,100297.84
2023-04-18T10:18:05.136Z,100301.72
2023-04-18T10:23:32.664Z,100300.81
2023-04-18T10:28:55.104Z,100302.03
2023-04-18T10:39:25.619Z,100308.28
2023-04-18T10:44:28.057Z,100309.81
2023-04-18T10:49:33.067Z,100306.97
2023-04-18T10:54:42.746Z,100311.75
2023-04-18T10:59:51.229Z,100310.22
2023-04-18T11:04:55.046Z,100300.84
2023-04-18T11:09:57.311Z,100296.19
2023-04-18T11:15:01.646Z,100302.81
2023-04-18T11:20:11.778Z,100304.06
2023-04-18T11:25:14.776Z,100296.72
2023-04-18T11:30:17.574Z,100293.81
2023-04-18T11:35:19.936Z,100291.50
2023-04-18T11:40:22.080Z,100285.53
2023-04-18T11:45:24.201Z,100286.34
2023-04-18T11:50:26.932Z,100275.59
2023-04-18T11:55:29.320Z,100270.22
2023-04-18T12:00:39.305Z,100277.75
2023-04-18T12:05:42.526Z,100273.88
2023-04-18T12:10:52.727Z,100272.25
2023-04-18T12:15:55.013Z,100266.97
2023-04-18T12:20:58.769Z,100266.69
2023-04-18T12:26:05.864Z,100258.59
2023-04-18T12:31:08.182Z,100251.72
2023-04-18T12:36:10.581Z,100242.56
2023-04-18T12:41:13.410Z,100253.78
2023-04-18T12:46:15.678Z,100245.56
2023-04-18T12:51:17.937Z,100247.50
2023-04-18T12:56:21.168Z,100239.72
2023-04-18T13:01:23.402Z,100241.16
2023-04-18T13:06:26.026Z,100242.38
2023-04-18T13:11:29.184Z,100242.28
2023-04-18T13:16:31.654Z,100231.03
2023-04-18T13:21:34.050Z,100229.53
2023-04-18T13:26:37.648Z,100211.34
2023-04-18T13:31:39.938Z,100237.59
2023-04-18T13:36:42.265Z,100232.66
2023-04-18T13:41:45.015Z,100232.41
2023-04-18T13:46:47.358Z,100222.84
2023-04-18T13:51:57.659Z,100217.72
2023-04-18T13:57:04.590Z,100222.75
2023-04-18T14:02:10.651Z,100222.97
2023-04-18T14:07:13.247Z,100223.75
2023-04-18T14:12:15.466Z,100224.00
2023-04-18T14:17:17.698Z,100210.19
2023-04-18T14:22:19.919Z,100222.63
2023-04-18T14:27:22.039Z,100224.84
2023-04-18T14:32:24.251Z,100218.06
2023-04-18T14:37:26.574Z,100231.69
2023-04-18T14:42:28.788Z,100229.66
2023-04-18T14:47:34.381Z,100223.81
2023-04-18T14:52:36.521Z,100234.94
2023-04-18T14:57:39.116Z,100218.34
2023-04-18T15:02:42.050Z,100237.91
2023-04-18T15:07:45.223Z,100235.56
2023-04-18T15:12:47.493Z,100239.19
2023-04-18T15:17:49.833Z,100236.53
2023-04-18T15:22:52.010Z,100237.97
2023-04-18T15:27:54.684Z,100238.78
2023-04-18T15:32:57.319Z,100237.53
2023-04-18T15:37:59.555Z,100225.50
2023-04-18T15:43:01.955Z,100239.28
2023-04-18T15:48:04.278Z,100237.13
2023-04-18T15:53:06.826Z,100242.41
2023-04-18T15:58:09.035Z,100244.19
2023-04-18T16:03:11.432Z,100244.47
2023-04-18T16:08:13.750Z,100259.44
2023-04-18T16:13:16.231Z,100253.19
2023-04-18T16:18:18.376Z,100252.31
2023-04-18T16:23:20.681Z,100249.72
2023-04-18T16:28:22.838Z,100256.44
2023-04-18T16:33:26.184Z,100255.91
2023-04-18T16:38:28.688Z,100266.91
2023-04-18T16:43:31.177Z,100269.50
2023-04-18T16:48:33.362Z,100274.41
2023-04-18T16:53:36.164Z,100271.22
2023-04-18T16:58:38.343Z,100275.81
2023-04-18T17:03:40.401Z,100284.00
2023-04-18T17:08:44.157Z,100280.53
2023-04-18T17:13:46.648Z,100269.03
2023-04-18T17:18:48.843Z,100280.81
2023-04-18T17:23:51.146Z,100283.03
2023-04-18T17:28:53.579Z,100284.22
2023-04-18T17:33:56.370Z,100282.94
2023-04-18T17:39:08.201Z,100290.31
2023-04-18T17:44:10.544Z,100291.31
2023-04-18T17:49:13.850Z,100290.03
2023-04-18T17:54:16.540Z,100290.41
2023-04-18T17:59:18.711Z,100296.13
2023-04-18T18:04:24.804Z,100293.00
2023-04-18T18:09:28.619Z,100294.34
2023-04-18T18:14:30.680Z,100290.28
2023-04-18T18:19:35.461Z,100289.50
2023-04-18T18:24:37.526Z,100286.97
2023-04-18T18:29:39.689Z,100291.19
2023-04-18T18:34:41.640Z,100287.19
2023-04-18T18:39:43.727Z,100289.34
2023-04-18T18:44:46.020Z,100285.09
2023-04-18T18:49:48.858Z,100284.84
2023-04-18T18:54:51.160Z,100288.03
2023-04-18T18:59:55.219Z,100274.13
2023-04-18T19:04:58.086Z,100282.13
2023-04-18T19:10:01.788Z,100292.78
2023-04-18T19:15:08.590Z,100290.69
2023-04-18T19:20:11.222Z,100289.75
2023-04-18T19:25:13.288Z,100274.09
2023-04-18T19:30:15.557Z,100279.50
2023-04-18T19:35:17.669Z,100279.88
2023-04-18T19:40:19.940Z,100275.94
2023-04-18T19:45:22.891Z,100281.53
2023-04-18T19:50:25.109Z,100288.41
2023-04-18T19:55:27.282Z,100287.91
2023-04-18T20:00:29.504Z,100292.16
2023-04-18T20:05:31.858Z,100280.34
2023-04-18T20:10:34.640Z,100295.19
2023-04-18T20:15:36.838Z,100283.41
2023-04-18T20:20:39.029Z,100291.78
2023-04-18T20:25:41.666Z,100297.75
2023-04-18T20:30:44.871Z,100304.25
2023-04-18T20:35:47.086Z,100303.59
2023-04-18T20:40:52.869Z,100312.53
2023-04-18T20:45:57.910Z,100315.44
2023-04-18T20:51:00.401Z,100316.31
2023-04-18T20:56:05.281Z,100315.00
2023-04-18T21:01:07.673Z,100314.03
2023-04-18T21:06:09.989Z,100312.88
2023-04-18T21:11:12.142Z,100312.91
2023-04-18T21:16:14.096Z,100315.91
2023-04-18T21:21:16.162Z,100317.09
2023-04-18T21:26:18.991Z,100326.94
2023-04-18T21:31:21.119Z,100326.97
2023-04-18T21:36:24.722Z,100332.78
2023-04-18T21:41:27.233Z,100322.00
2023-04-18T21:46:29.578Z,100321.50
2023-04-18T21:51:32.172Z,100322.34
2023-04-18T21:56:34.472Z,100325.19
2023-04-18T22:01:38.458Z,100324.50
2023-04-18T22:06:41.633Z,100332.81
2023-04-18T22:11:43.733Z,100341.81
2023-04-18T22:16:46.052Z,100335.50
2023-04-18T22:21:48.240Z,100337.66
2023-04-18T22:26:50.547Z,100338.34
2023-04-18T22:31:52.748Z,100330.88
2023-04-18T22:36:54.660Z,100335.97
2023-04-18T22:41:56.924Z,100324.88
2023-04-18T22:46:59.083Z,100328.19
2023-04-18T22:52:01.329Z,100324.84
2023-04-18T22:57:03.524Z,100326.34
2023-04-18T23:02:05.853Z,100323.84
2023-04-18T23:07:09.187Z,100326.97
2023-04-18T23:12:11.321Z,100321.84
2023-04-18T23:17:13.525Z,100323.16
2023-04-18T23:22:15.725Z,100327.16
2023-04-18T23:27:18.994Z,100334.28
2023-04-18T23:32:21.399Z,100327.63
2023-04-18T23:37:23.557Z,100324.97
2023-04-18T23:42:25.609Z,100317.25
2023-04-18T23:47:28.106Z,100316.84
2023-04-18T23:52:30.239Z,100313.84
2023-04-18T23:57:32.511Z,100321.50
